SWA3935 KSAT-KHOU
Flight info
| Callsign | SWA3935 |
|---|---|
| Flight time | 0h 32m |
| Altitude | 23000 |
| Route | SNIDR2 WEMAR BELLR6 |
| Aircraft | B737/M-SADE2E3GIJ4RWZ/LB1D1 |
Departure
| Time | 2026-04-27 20:24 |
|---|---|
| Airport | San Antonio International Airport (KSAT) |
Arrival
| Time | 2026-04-27 20:56 |
|---|---|
| Airport | William P. Hobby Airport (KHOU) |
| Time | Latitude | Longitude | Altitude | Speed | Heading |
|---|---|---|---|---|---|
| 2026-04-27 19:39 | 29.52708 | -98.47121 | 807 ft | 0 kts | 148° |
| 2026-04-27 20:12 | 29.52718 | -98.47129 | 804 ft | 4 kts | 152° |
| 2026-04-27 20:13 | 29.52743 | -98.47140 | 833 ft | 4 kts | 175° |
| 2026-04-27 20:13 | 29.52765 | -98.47139 | 802 ft | 4 kts | 195° |
| 2026-04-27 20:13 | 29.52786 | -98.47124 | 802 ft | 4 kts | 223° |
| 2026-04-27 20:13 | 29.52802 | -98.47109 | 802 ft | 4 kts | 197° |
| 2026-04-27 20:14 | 29.52819 | -98.47102 | 802 ft | 3 kts | 218° |
| 2026-04-27 20:14 | 29.52842 | -98.47087 | 802 ft | 4 kts | 207° |
| 2026-04-27 20:14 | 29.52849 | -98.47076 | 802 ft | 4 kts | 283° |
| 2026-04-27 20:14 | 29.52846 | -98.47069 | 802 ft | 4 kts | 21° |
| 2026-04-27 20:15 | 29.52824 | -98.47086 | 802 ft | 4 kts | 42° |
| 2026-04-27 20:15 | 29.52810 | -98.47099 | 802 ft | 0 kts | 41° |
| 2026-04-27 20:19 | 29.52819 | -98.47090 | 802 ft | 4 kts | 41° |
| 2026-04-27 20:19 | 29.52851 | -98.47059 | 802 ft | 8 kts | 36° |
| 2026-04-27 20:19 | 29.52907 | -98.47083 | 803 ft | 12 kts | 311° |
| 2026-04-27 20:20 | 29.52969 | -98.47164 | 803 ft | 15 kts | 311° |
| 2026-04-27 20:20 | 29.53064 | -98.47191 | 803 ft | 16 kts | 337° |
| 2026-04-27 20:20 | 29.53149 | -98.47292 | 786 ft | 19 kts | 311° |
| 2026-04-27 20:20 | 29.53245 | -98.47417 | 797 ft | 22 kts | 311° |
| 2026-04-27 20:21 | 29.53355 | -98.47560 | 797 ft | 25 kts | 311° |
| 2026-04-27 20:21 | 29.53478 | -98.47718 | 797 ft | 28 kts | 312° |
| 2026-04-27 20:21 | 29.53604 | -98.47880 | 797 ft | 26 kts | 311° |
| 2026-04-27 20:21 | 29.53721 | -98.48031 | 797 ft | 24 kts | 312° |
| 2026-04-27 20:22 | 29.53831 | -98.48171 | 797 ft | 23 kts | 311° |
| 2026-04-27 20:22 | 29.53935 | -98.48306 | 797 ft | 22 kts | 311° |
| 2026-04-27 20:22 | 29.54037 | -98.48437 | 797 ft | 22 kts | 311° |
| 2026-04-27 20:22 | 29.54132 | -98.48558 | 797 ft | 15 kts | 312° |
| 2026-04-27 20:23 | 29.54198 | -98.48609 | 797 ft | 8 kts | 8° |
| 2026-04-27 20:23 | 29.54245 | -98.48571 | 797 ft | 9 kts | 42° |
| 2026-04-27 20:23 | 29.54237 | -98.48506 | 797 ft | 13 kts | 132° |
| 2026-04-27 20:23 | 29.54033 | -98.48243 | 797 ft | 78 kts | 131° |
| 2026-04-27 20:24 | 29.53531 | -98.47598 | 797 ft | 136 kts | 132° |
| 2026-04-27 20:24 | 29.52811 | -98.46667 | 994 ft | 164 kts | 131° |
| 2026-04-27 20:24 | 29.52106 | -98.45708 | 1684 ft | 160 kts | 130° |
| 2026-04-27 20:24 | 29.51355 | -98.44626 | 2021 ft | 186 kts | 130° |
| 2026-04-27 20:25 | 29.50510 | -98.43432 | 2454 ft | 203 kts | 127° |
| 2026-04-27 20:25 | 29.49895 | -98.41946 | 2963 ft | 216 kts | 99° |
| 2026-04-27 20:25 | 29.50099 | -98.40193 | 3461 ft | 231 kts | 74° |
| 2026-04-27 20:25 | 29.50601 | -98.38328 | 3752 ft | 257 kts | 76° |
| 2026-04-27 20:26 | 29.51149 | -98.36316 | 4311 ft | 271 kts | 70° |
| 2026-04-27 20:26 | 29.51778 | -98.34241 | 5022 ft | 277 kts | 74° |
| 2026-04-27 20:26 | 29.52349 | -98.32093 | 5682 ft | 285 kts | 74° |
| 2026-04-27 20:26 | 29.52935 | -98.29887 | 6519 ft | 294 kts | 73° |
| 2026-04-27 20:27 | 29.53527 | -98.27621 | 7447 ft | 299 kts | 74° |
| 2026-04-27 20:27 | 29.54123 | -98.25323 | 8455 ft | 303 kts | 73° |
| 2026-04-27 20:27 | 29.54729 | -98.22981 | 9449 ft | 308 kts | 75° |
| 2026-04-27 20:27 | 29.55326 | -98.20593 | 10321 ft | 315 kts | 76° |
| 2026-04-27 20:28 | 29.55981 | -98.18085 | 10615 ft | 342 kts | 74° |
| 2026-04-27 20:28 | 29.56715 | -98.15377 | 10826 ft | 368 kts | 74° |
| 2026-04-27 20:28 | 29.57494 | -98.12504 | 11320 ft | 382 kts | 74° |
| 2026-04-27 20:28 | 29.58017 | -98.10567 | 11813 ft | 386 kts | 75° |
| 2026-04-27 20:29 | 29.59089 | -98.06570 | 12723 ft | 396 kts | 75° |
| 2026-04-27 20:29 | 29.59900 | -98.03528 | 13466 ft | 401 kts | 75° |
| 2026-04-27 20:29 | 29.60719 | -98.00450 | 14145 ft | 405 kts | 75° |
| 2026-04-27 20:29 | 29.61544 | -97.97339 | 14815 ft | 410 kts | 75° |
| 2026-04-27 20:30 | 29.62380 | -97.94183 | 15500 ft | 414 kts | 74° |
| 2026-04-27 20:30 | 29.63225 | -97.90993 | 16204 ft | 419 kts | 74° |
| 2026-04-27 20:30 | 29.64080 | -97.87762 | 16839 ft | 426 kts | 74° |
| 2026-04-27 20:30 | 29.64924 | -97.84484 | 17473 ft | 431 kts | 77° |
| 2026-04-27 20:31 | 29.65438 | -97.81068 | 18107 ft | 436 kts | 87° |
| 2026-04-27 20:31 | 29.65528 | -97.77573 | 18678 ft | 440 kts | 91° |
| 2026-04-27 20:31 | 29.65539 | -97.74480 | 19177 ft | 444 kts | 91° |
| 2026-04-27 20:31 | 29.65536 | -97.70907 | 19755 ft | 449 kts | 91° |
| 2026-04-27 20:32 | 29.65539 | -97.67301 | 20320 ft | 454 kts | 91° |
| 2026-04-27 20:32 | 29.65554 | -97.63656 | 20870 ft | 459 kts | 91° |
| 2026-04-27 20:32 | 29.65580 | -97.59966 | 21407 ft | 463 kts | 90° |
| 2026-04-27 20:32 | 29.65614 | -97.56255 | 21948 ft | 468 kts | 90° |
| 2026-04-27 20:33 | 29.65651 | -97.52495 | 22515 ft | 471 kts | 90° |
| 2026-04-27 20:33 | 29.65688 | -97.48709 | 22883 ft | 477 kts | 90° |
| 2026-04-27 20:33 | 29.65724 | -97.44840 | 22868 ft | 489 kts | 90° |
| 2026-04-27 20:33 | 29.65759 | -97.40900 | 22891 ft | 498 kts | 90° |
| 2026-04-27 20:34 | 29.65794 | -97.36887 | 22876 ft | 505 kts | 90° |
| 2026-04-27 20:34 | 29.65827 | -97.32844 | 22869 ft | 506 kts | 90° |
| 2026-04-27 20:34 | 29.65859 | -97.28814 | 22860 ft | 502 kts | 90° |
| 2026-04-27 20:34 | 29.65889 | -97.24822 | 22858 ft | 500 kts | 90° |
| 2026-04-27 20:35 | 29.65914 | -97.20831 | 22864 ft | 499 kts | 90° |
| 2026-04-27 20:35 | 29.65933 | -97.16895 | 22867 ft | 499 kts | 90° |
| 2026-04-27 20:35 | 29.65950 | -97.12860 | 22859 ft | 500 kts | 90° |
| 2026-04-27 20:35 | 29.65968 | -97.08853 | 22860 ft | 501 kts | 90° |
| 2026-04-27 20:36 | 29.65985 | -97.04907 | 22858 ft | 501 kts | 90° |
| 2026-04-27 20:36 | 29.65825 | -97.00900 | 22840 ft | 501 kts | 101° |
| 2026-04-27 20:36 | 29.64803 | -96.97112 | 22872 ft | 496 kts | 115° |
| 2026-04-27 20:36 | 29.63443 | -96.93463 | 22855 ft | 497 kts | 116° |
| 2026-04-27 20:37 | 29.62067 | -96.89825 | 22837 ft | 497 kts | 116° |
| 2026-04-27 20:37 | 29.60700 | -96.86182 | 22838 ft | 496 kts | 116° |
| 2026-04-27 20:37 | 29.59334 | -96.82482 | 22835 ft | 496 kts | 115° |
| 2026-04-27 20:37 | 29.58021 | -96.78878 | 22842 ft | 496 kts | 115° |
| 2026-04-27 20:38 | 29.56696 | -96.75216 | 22829 ft | 496 kts | 115° |
| 2026-04-27 20:38 | 29.55374 | -96.71550 | 22840 ft | 496 kts | 115° |
| 2026-04-27 20:38 | 29.54053 | -96.67892 | 22835 ft | 496 kts | 115° |
| 2026-04-27 20:38 | 29.52735 | -96.64248 | 22656 ft | 491 kts | 115° |
| 2026-04-27 20:39 | 29.51428 | -96.60637 | 21952 ft | 487 kts | 115° |
| 2026-04-27 20:39 | 29.50137 | -96.57081 | 21229 ft | 480 kts | 115° |
| 2026-04-27 20:39 | 29.48860 | -96.53566 | 20470 ft | 473 kts | 115° |
| 2026-04-27 20:39 | 29.47599 | -96.50101 | 19740 ft | 467 kts | 116° |
| 2026-04-27 20:40 | 29.46356 | -96.46689 | 19018 ft | 462 kts | 116° |
| 2026-04-27 20:40 | 29.45119 | -96.43301 | 18275 ft | 457 kts | 116° |
| 2026-04-27 20:40 | 29.43896 | -96.39954 | 17486 ft | 452 kts | 116° |
| 2026-04-27 20:40 | 29.42687 | -96.36650 | 16751 ft | 445 kts | 116° |
| 2026-04-27 20:41 | 29.41500 | -96.33404 | 16046 ft | 438 kts | 115° |
| 2026-04-27 20:41 | 29.40331 | -96.30213 | 15315 ft | 431 kts | 115° |
| 2026-04-27 20:41 | 29.39171 | -96.27067 | 14602 ft | 425 kts | 116° |
| 2026-04-27 20:41 | 29.38026 | -96.23967 | 13888 ft | 420 kts | 115° |
| 2026-04-27 20:42 | 29.36947 | -96.20927 | 13696 ft | 402 kts | 115° |
| 2026-04-27 20:42 | 29.35889 | -96.18032 | 13498 ft | 386 kts | 115° |
| 2026-04-27 20:42 | 29.34857 | -96.15257 | 13301 ft | 370 kts | 116° |
| 2026-04-27 20:42 | 29.33887 | -96.12596 | 13146 ft | 356 kts | 112° |
| 2026-04-27 20:43 | 29.33515 | -96.09830 | 12996 ft | 349 kts | 88° |
| 2026-04-27 20:43 | 29.34009 | -96.07156 | 12723 ft | 340 kts | 70° |
| 2026-04-27 20:43 | 29.35148 | -96.04851 | 12424 ft | 328 kts | 54° |
| 2026-04-27 20:43 | 29.36535 | -96.02798 | 12139 ft | 324 kts | 52° |
| 2026-04-27 20:44 | 29.37951 | -96.00804 | 11851 ft | 321 kts | 51° |
| 2026-04-27 20:44 | 29.39360 | -95.98820 | 11576 ft | 320 kts | 52° |
| 2026-04-27 20:44 | 29.40758 | -95.96830 | 11289 ft | 320 kts | 52° |
| 2026-04-27 20:44 | 29.42125 | -95.94863 | 11000 ft | 319 kts | 52° |
| 2026-04-27 20:45 | 29.43521 | -95.92841 | 10724 ft | 319 kts | 52° |
| 2026-04-27 20:45 | 29.44875 | -95.90872 | 10445 ft | 318 kts | 52° |
| 2026-04-27 20:45 | 29.46261 | -95.88855 | 10151 ft | 315 kts | 52° |
| 2026-04-27 20:45 | 29.47567 | -95.86907 | 9845 ft | 310 kts | 54° |
| 2026-04-27 20:46 | 29.48809 | -95.84896 | 9536 ft | 307 kts | 56° |
| 2026-04-27 20:46 | 29.50017 | -95.82890 | 9219 ft | 305 kts | 57° |
| 2026-04-27 20:46 | 29.51214 | -95.80899 | 8942 ft | 301 kts | 57° |
| 2026-04-27 20:46 | 29.52402 | -95.78929 | 8654 ft | 298 kts | 57° |
| 2026-04-27 20:47 | 29.53579 | -95.76984 | 8423 ft | 295 kts | 57° |
| 2026-04-27 20:47 | 29.54745 | -95.75060 | 8148 ft | 292 kts | 57° |
| 2026-04-27 20:47 | 29.55899 | -95.73158 | 7882 ft | 289 kts | 57° |
| 2026-04-27 20:47 | 29.57051 | -95.71261 | 7721 ft | 291 kts | 57° |
| 2026-04-27 20:48 | 29.58218 | -95.69339 | 7465 ft | 293 kts | 57° |
| 2026-04-27 20:48 | 29.58804 | -95.68375 | 7346 ft | 291 kts | 57° |
| 2026-04-27 20:48 | 29.60301 | -95.65910 | 7034 ft | 286 kts | 57° |
| 2026-04-27 20:48 | 29.61434 | -95.64043 | 6806 ft | 284 kts | 57° |
| 2026-04-27 20:49 | 29.62562 | -95.62179 | 6498 ft | 283 kts | 58° |
| 2026-04-27 20:49 | 29.63663 | -95.60367 | 6276 ft | 271 kts | 57° |
| 2026-04-27 20:49 | 29.64867 | -95.58746 | 6005 ft | 265 kts | 46° |
| 2026-04-27 20:49 | 29.66178 | -95.57288 | 5784 ft | 259 kts | 45° |
| 2026-04-27 20:50 | 29.67211 | -95.56109 | 5513 ft | 258 kts | 48° |
| 2026-04-27 20:50 | 29.68389 | -95.54725 | 5042 ft | 263 kts | 47° |
| 2026-04-27 20:50 | 29.69671 | -95.53223 | 4585 ft | 263 kts | 47° |
| 2026-04-27 20:50 | 29.70949 | -95.51728 | 4131 ft | 263 kts | 48° |
| 2026-04-27 20:51 | 29.72235 | -95.50230 | 3684 ft | 263 kts | 47° |
| 2026-04-27 20:51 | 29.73503 | -95.48725 | 3236 ft | 261 kts | 50° |
| 2026-04-27 20:51 | 29.74721 | -95.47184 | 2770 ft | 259 kts | 52° |
| 2026-04-27 20:51 | 29.75891 | -95.45609 | 2330 ft | 257 kts | 59° |
| 2026-04-27 20:52 | 29.76477 | -95.43733 | 2094 ft | 243 kts | 90° |
| 2026-04-27 20:52 | 29.76372 | -95.41984 | 2037 ft | 227 kts | 104° |
| 2026-04-27 20:52 | 29.75726 | -95.40454 | 1981 ft | 204 kts | 142° |
| 2026-04-27 20:52 | 29.74616 | -95.39592 | 1994 ft | 184 kts | 147° |
| 2026-04-27 20:53 | 29.73642 | -95.38672 | 2003 ft | 180 kts | 142° |
| 2026-04-27 20:53 | 29.72725 | -95.37711 | 1987 ft | 177 kts | 139° |
| 2026-04-27 20:53 | 29.71909 | -95.36699 | 1954 ft | 168 kts | 138° |
| 2026-04-27 20:53 | 29.71133 | -95.35768 | 1789 ft | 150 kts | 136° |
| 2026-04-27 20:54 | 29.69763 | -95.34117 | 1401 ft | 142 kts | 136° |
| 2026-04-27 20:54 | 29.69080 | -95.33303 | 1227 ft | 140 kts | 137° |
| 2026-04-27 20:54 | 29.68432 | -95.32529 | 1044 ft | 131 kts | 139° |
| 2026-04-27 20:55 | 29.67835 | -95.31742 | 875 ft | 134 kts | 137° |
| 2026-04-27 20:55 | 29.67401 | -95.31233 | 769 ft | 133 kts | 138° |
| 2026-04-27 20:55 | 29.66737 | -95.30478 | 609 ft | 135 kts | 139° |
| 2026-04-27 20:55 | 29.66091 | -95.29700 | 388 ft | 132 kts | 141° |
| 2026-04-27 20:56 | 29.65453 | -95.28967 | 216 ft | 132 kts | 138° |
| 2026-04-27 20:56 | 29.64808 | -95.28209 | 62 ft | 132 kts | 138° |
| 2026-04-27 20:56 | 29.64248 | -95.27548 | 49 ft | 88 kts | 134° |
| 2026-04-27 20:56 | 29.63963 | -95.27205 | 49 ft | 39 kts | 125° |
| 2026-04-27 20:57 | 29.63921 | -95.26996 | 51 ft | 20 kts | 89° |
| 2026-04-27 20:57 | 29.63953 | -95.26868 | 51 ft | 16 kts | 14° |
| 2026-04-27 20:57 | 29.64064 | -95.26862 | 51 ft | 16 kts | 1° |
| 2026-04-27 20:57 | 29.64164 | -95.26887 | 51 ft | 16 kts | 311° |
| 2026-04-27 20:58 | 29.64240 | -95.26992 | 51 ft | 19 kts | 310° |
| 2026-04-27 20:58 | 29.64333 | -95.27115 | 51 ft | 22 kts | 310° |
| 2026-04-27 20:58 | 29.64412 | -95.27264 | 51 ft | 21 kts | 307° |
| 2026-04-27 20:58 | 29.64511 | -95.27383 | 51 ft | 20 kts | 314° |
| 2026-04-27 20:59 | 29.64605 | -95.27491 | 51 ft | 18 kts | 323° |
| 2026-04-27 20:59 | 29.64724 | -95.27514 | 51 ft | 17 kts | 358° |
| 2026-04-27 20:59 | 29.64843 | -95.27518 | 51 ft | 18 kts | 0° |
| 2026-04-27 20:59 | 29.64980 | -95.27521 | 51 ft | 20 kts | 359° |
| 2026-04-27 21:00 | 29.65101 | -95.27557 | 49 ft | 18 kts | 285° |
| 2026-04-27 21:00 | 29.65100 | -95.27698 | 51 ft | 17 kts | 268° |
| 2026-04-27 21:00 | 29.65097 | -95.27832 | 51 ft | 17 kts | 269° |
| 2026-04-27 21:00 | 29.65146 | -95.27946 | 51 ft | 17 kts | 313° |
| 2026-04-27 21:01 | 29.65241 | -95.28021 | 51 ft | 17 kts | 26° |
| 2026-04-27 21:01 | 29.65283 | -95.27935 | 51 ft | 10 kts | 136° |
| 2026-04-27 21:01 | 29.65263 | -95.27921 | 51 ft | 2 kts | 145° |
| 2026-04-27 21:01 | 29.65259 | -95.27917 | 51 ft | 0 kts | 144° |